Aviation Digital Data Service (ADDS)

Output produced by METARs form (1644 UTC 01 July 2015)
found at http://aviationweather.gov/adds/metars/
 
KSLK 011120Z 0112/0212 19004KT P6SM VCSH OVC040 
     TEMPO 0112/0114 4SM -SHRA BR SCT012 OVC028 
     FM011400 21010G18KT P6SM -SHRA SCT010 OVC030 
     FM011600 23010G18KT P6SM VCSH OVC028 
     TEMPO 0116/0119 4SM SHRA BR OVC020 
     FM012300 24008KT P6SM SCT025 BKN035